sensor_id;sensor_type;location;lat;lon;timestamp;P1;durP1;ratioP1;P2;durP2;ratioP2
17171;SDS011;8701;50.150;8.756;2022-07-09T00:00:37;2.50;;;1.50;;
17171;SDS011;8701;50.150;8.756;2022-07-09T00:04:39;4.33;;;1.80;;
17171;SDS011;8701;50.150;8.756;2022-07-09T00:08:42;2.50;;;1.47;;
17171;SDS011;8701;50.150;8.756;2022-07-09T00:12:44;2.10;;;1.40;;
17171;SDS011;8701;50.150;8.756;2022-07-09T00:16:47;2.27;;;2.07;;
17171;SDS011;8701;50.150;8.756;2022-07-09T00:20:50;3.13;;;1.53;;
17171;SDS011;8701;50.150;8.756;2022-07-09T00:24:56;4.70;;;1.90;;
17171;SDS011;8701;50.150;8.756;2022-07-09T00:28:58;4.50;;;1.80;;
17171;SDS011;8701;50.150;8.756;2022-07-09T00:33:00;3.97;;;1.50;;
17171;SDS011;8701;50.150;8.756;2022-07-09T00:37:03;3.63;;;1.83;;
17171;SDS011;8701;50.150;8.756;2022-07-09T00:41:07;3.80;;;1.90;;
17171;SDS011;8701;50.150;8.756;2022-07-09T00:45:09;4.60;;;1.67;;
17171;SDS011;8701;50.150;8.756;2022-07-09T00:49:11;3.63;;;1.50;;
17171;SDS011;8701;50.150;8.756;2022-07-09T00:53:14;2.50;;;1.60;;
17171;SDS011;8701;50.150;8.756;2022-07-09T00:57:20;1.77;;;1.60;;
17171;SDS011;8701;50.150;8.756;2022-07-09T01:01:22;2.27;;;1.70;;
17171;SDS011;8701;50.150;8.756;2022-07-09T01:05:25;6.03;;;1.93;;
17171;SDS011;8701;50.150;8.756;2022-07-09T01:09:27;4.33;;;1.70;;
17171;SDS011;8701;50.150;8.756;2022-07-09T01:13:31;2.60;;;1.73;;
17171;SDS011;8701;50.150;8.756;2022-07-09T01:17:36;2.50;;;1.60;;
17171;SDS011;8701;50.150;8.756;2022-07-09T01:21:40;1.90;;;1.50;;
17171;SDS011;8701;50.150;8.756;2022-07-09T01:25:43;1.70;;;1.60;;
17171;SDS011;8701;50.150;8.756;2022-07-09T01:29:45;2.17;;;1.50;;
17171;SDS011;8701;50.150;8.756;2022-07-09T01:33:50;3.90;;;1.37;;
17171;SDS011;8701;50.150;8.756;2022-07-09T01:37:53;3.30;;;1.67;;
17171;SDS011;8701;50.150;8.756;2022-07-09T01:41:55;2.40;;;1.53;;
17171;SDS011;8701;50.150;8.756;2022-07-09T01:45:58;1.77;;;1.60;;
17171;SDS011;8701;50.150;8.756;2022-07-09T01:50:01;3.57;;;1.47;;
17171;SDS011;8701;50.150;8.756;2022-07-09T01:54:05;2.70;;;1.70;;
17171;SDS011;8701;50.150;8.756;2022-07-09T01:58:07;1.60;;;1.50;;
17171;SDS011;8701;50.150;8.756;2022-07-09T02:02:09;4.97;;;1.80;;
17171;SDS011;8701;50.150;8.756;2022-07-09T02:06:12;2.50;;;1.60;;
17171;SDS011;8701;50.150;8.756;2022-07-09T02:10:15;2.80;;;1.47;;
17171;SDS011;8701;50.150;8.756;2022-07-09T02:14:17;1.83;;;1.60;;
17171;SDS011;8701;50.150;8.756;2022-07-09T02:18:20;1.67;;;1.40;;
17171;SDS011;8701;50.150;8.756;2022-07-09T02:22:22;3.00;;;1.73;;
17171;SDS011;8701;50.150;8.756;2022-07-09T02:26:25;1.93;;;1.63;;
17171;SDS011;8701;50.150;8.756;2022-07-09T02:30:29;2.53;;;1.60;;
17171;SDS011;8701;50.150;8.756;2022-07-09T02:34:31;2.27;;;1.30;;
17171;SDS011;8701;50.150;8.756;2022-07-09T02:38:34;1.83;;;1.40;;
17171;SDS011;8701;50.150;8.756;2022-07-09T02:42:37;3.40;;;2.10;;
17171;SDS011;8701;50.150;8.756;2022-07-09T02:46:39;6.67;;;4.60;;
17171;SDS011;8701;50.150;8.756;2022-07-09T02:50:42;6.20;;;4.10;;
17171;SDS011;8701;50.150;8.756;2022-07-09T02:54:44;8.90;;;5.40;;
17171;SDS011;8701;50.150;8.756;2022-07-09T02:58:47;6.23;;;4.73;;
17171;SDS011;8701;50.150;8.756;2022-07-09T03:02:49;5.50;;;3.60;;
17171;SDS011;8701;50.150;8.756;2022-07-09T03:06:52;4.53;;;3.20;;
17171;SDS011;8701;50.150;8.756;2022-07-09T03:10:54;4.83;;;2.33;;
17171;SDS011;8701;50.150;8.756;2022-07-09T03:14:57;2.20;;;2.03;;
17171;SDS011;8701;50.150;8.756;2022-07-09T03:18:59;3.53;;;2.50;;
17171;SDS011;8701;50.150;8.756;2022-07-09T03:23:02;2.83;;;2.30;;
17171;SDS011;8701;50.150;8.756;2022-07-09T03:27:04;2.80;;;2.37;;
17171;SDS011;8701;50.150;8.756;2022-07-09T03:31:08;2.90;;;2.57;;
17171;SDS011;8701;50.150;8.756;2022-07-09T03:35:10;2.77;;;2.50;;
17171;SDS011;8701;50.150;8.756;2022-07-09T03:39:12;3.50;;;2.50;;
17171;SDS011;8701;50.150;8.756;2022-07-09T03:43:15;3.60;;;2.70;;
17171;SDS011;8701;50.150;8.756;2022-07-09T03:47:18;5.70;;;2.83;;
17171;SDS011;8701;50.150;8.756;2022-07-09T03:51:21;6.03;;;3.50;;
17171;SDS011;8701;50.150;8.756;2022-07-09T03:55:23;4.80;;;3.50;;
17171;SDS011;8701;50.150;8.756;2022-07-09T03:59:25;4.83;;;3.50;;
17171;SDS011;8701;50.150;8.756;2022-07-09T04:03:29;4.77;;;3.63;;
17171;SDS011;8701;50.150;8.756;2022-07-09T04:07:31;4.40;;;2.83;;
17171;SDS011;8701;50.150;8.756;2022-07-09T04:11:33;8.33;;;3.07;;
17171;SDS011;8701;50.150;8.756;2022-07-09T04:15:36;2.67;;;2.40;;
17171;SDS011;8701;50.150;8.756;2022-07-09T04:19:39;5.57;;;2.93;;
17171;SDS011;8701;50.150;8.756;2022-07-09T04:23:41;8.63;;;3.07;;
17171;SDS011;8701;50.150;8.756;2022-07-09T04:27:44;4.10;;;3.10;;
17171;SDS011;8701;50.150;8.756;2022-07-09T04:31:46;5.90;;;3.33;;
17171;SDS011;8701;50.150;8.756;2022-07-09T04:35:49;4.87;;;3.00;;
17171;SDS011;8701;50.150;8.756;2022-07-09T04:39:52;5.30;;;2.90;;
17171;SDS011;8701;50.150;8.756;2022-07-09T04:43:54;6.93;;;2.90;;
17171;SDS011;8701;50.150;8.756;2022-07-09T04:47:56;3.70;;;2.50;;
17171;SDS011;8701;50.150;8.756;2022-07-09T04:52:00;9.33;;;2.60;;
17171;SDS011;8701;50.150;8.756;2022-07-09T04:56:03;6.60;;;2.80;;
17171;SDS011;8701;50.150;8.756;2022-07-09T05:00:06;6.73;;;3.30;;
17171;SDS011;8701;50.150;8.756;2022-07-09T05:04:08;10.17;;;2.97;;
17171;SDS011;8701;50.150;8.756;2022-07-09T05:08:12;10.67;;;3.10;;
17171;SDS011;8701;50.150;8.756;2022-07-09T05:12:14;7.47;;;2.77;;
17171;SDS011;8701;50.150;8.756;2022-07-09T05:16:17;3.70;;;2.70;;
17171;SDS011;8701;50.150;8.756;2022-07-09T05:20:19;9.33;;;3.03;;
17171;SDS011;8701;50.150;8.756;2022-07-09T05:24:22;7.20;;;2.90;;
17171;SDS011;8701;50.150;8.756;2022-07-09T05:28:25;4.90;;;2.90;;
17171;SDS011;8701;50.150;8.756;2022-07-09T05:32:27;10.07;;;2.90;;
17171;SDS011;8701;50.150;8.756;2022-07-09T05:36:29;4.97;;;3.30;;
17171;SDS011;8701;50.150;8.756;2022-07-09T05:40:33;5.60;;;2.87;;
17171;SDS011;8701;50.150;8.756;2022-07-09T05:44:35;4.67;;;3.00;;
17171;SDS011;8701;50.150;8.756;2022-07-09T05:48:37;4.57;;;3.57;;
17171;SDS011;8701;50.150;8.756;2022-07-09T05:52:39;6.83;;;3.47;;
17171;SDS011;8701;50.150;8.756;2022-07-09T05:56:43;4.07;;;2.90;;
17171;SDS011;8701;50.150;8.756;2022-07-09T06:00:45;5.17;;;2.90;;
17171;SDS011;8701;50.150;8.756;2022-07-09T06:04:47;6.50;;;3.50;;
17171;SDS011;8701;50.150;8.756;2022-07-09T06:08:50;3.47;;;2.60;;
17171;SDS011;8701;50.150;8.756;2022-07-09T06:12:54;7.80;;;3.30;;
17171;SDS011;8701;50.150;8.756;2022-07-09T06:16:56;4.40;;;3.23;;
17171;SDS011;8701;50.150;8.756;2022-07-09T06:20:59;4.10;;;3.70;;
17171;SDS011;8701;50.150;8.756;2022-07-09T06:25:02;7.50;;;3.10;;
17171;SDS011;8701;50.150;8.756;2022-07-09T06:29:06;8.07;;;4.20;;
17171;SDS011;8701;50.150;8.756;2022-07-09T06:33:08;7.43;;;3.57;;
17171;SDS011;8701;50.150;8.756;2022-07-09T06:37:10;4.73;;;3.37;;
17171;SDS011;8701;50.150;8.756;2022-07-09T06:41:13;3.60;;;3.20;;
17171;SDS011;8701;50.150;8.756;2022-07-09T06:45:16;5.43;;;3.60;;
17171;SDS011;8701;50.150;8.756;2022-07-09T06:49:18;4.50;;;2.90;;
17171;SDS011;8701;50.150;8.756;2022-07-09T06:53:20;6.60;;;2.90;;
17171;SDS011;8701;50.150;8.756;2022-07-09T06:57:23;4.20;;;3.40;;
17171;SDS011;8701;50.150;8.756;2022-07-09T07:01:26;4.23;;;2.73;;
17171;SDS011;8701;50.150;8.756;2022-07-09T07:05:28;5.10;;;3.10;;
17171;SDS011;8701;50.150;8.756;2022-07-09T07:09:31;5.80;;;3.10;;
17171;SDS011;8701;50.150;8.756;2022-07-09T07:13:33;3.93;;;2.80;;
17171;SDS011;8701;50.150;8.756;2022-07-09T07:17:36;3.63;;;2.87;;
17171;SDS011;8701;50.150;8.756;2022-07-09T07:21:39;3.47;;;2.30;;
17171;SDS011;8701;50.150;8.756;2022-07-09T07:25:41;5.03;;;2.90;;
17171;SDS011;8701;50.150;8.756;2022-07-09T07:29:44;7.63;;;3.67;;
17171;SDS011;8701;50.150;8.756;2022-07-09T07:33:47;7.90;;;3.40;;
17171;SDS011;8701;50.150;8.756;2022-07-09T07:37:49;5.10;;;2.60;;
17171;SDS011;8701;50.150;8.756;2022-07-09T07:41:51;2.40;;;2.20;;
17171;SDS011;8701;50.150;8.756;2022-07-09T07:45:54;8.97;;;2.57;;
17171;SDS011;8701;50.150;8.756;2022-07-09T07:49:57;3.87;;;2.57;;
17171;SDS011;8701;50.150;8.756;2022-07-09T07:54:00;5.40;;;2.50;;
17171;SDS011;8701;50.150;8.756;2022-07-09T07:58:02;7.40;;;2.63;;
17171;SDS011;8701;50.150;8.756;2022-07-09T08:02:04;7.30;;;2.70;;
17171;SDS011;8701;50.150;8.756;2022-07-09T08:06:09;9.20;;;3.20;;
17171;SDS011;8701;50.150;8.756;2022-07-09T08:10:11;5.07;;;2.83;;
17171;SDS011;8701;50.150;8.756;2022-07-09T08:14:13;2.77;;;2.10;;
17171;SDS011;8701;50.150;8.756;2022-07-09T08:18:15;2.23;;;2.00;;
17171;SDS011;8701;50.150;8.756;2022-07-09T08:22:19;4.70;;;2.63;;
17171;SDS011;8701;50.150;8.756;2022-07-09T08:26:22;6.83;;;3.00;;
17171;SDS011;8701;50.150;8.756;2022-07-09T08:30:25;3.17;;;2.23;;
17171;SDS011;8701;50.150;8.756;2022-07-09T08:34:28;9.00;;;2.17;;
17171;SDS011;8701;50.150;8.756;2022-07-09T08:38:31;8.43;;;2.80;;
17171;SDS011;8701;50.150;8.756;2022-07-09T08:42:34;6.13;;;2.50;;
17171;SDS011;8701;50.150;8.756;2022-07-09T08:46:36;2.00;;;1.70;;
17171;SDS011;8701;50.150;8.756;2022-07-09T08:50:39;4.50;;;2.10;;
17171;SDS011;8701;50.150;8.756;2022-07-09T08:54:44;2.33;;;2.00;;
17171;SDS011;8701;50.150;8.756;2022-07-09T08:58:47;6.00;;;1.87;;
17171;SDS011;8701;50.150;8.756;2022-07-09T09:02:50;3.53;;;1.90;;
17171;SDS011;8701;50.150;8.756;2022-07-09T09:06:52;1.80;;;1.43;;
17171;SDS011;8701;50.150;8.756;2022-07-09T09:10:55;3.70;;;1.90;;
17171;SDS011;8701;50.150;8.756;2022-07-09T09:14:58;1.63;;;1.40;;
17171;SDS011;8701;50.150;8.756;2022-07-09T09:19:00;1.97;;;1.77;;
17171;SDS011;8701;50.150;8.756;2022-07-09T09:23:02;5.73;;;2.10;;
17171;SDS011;8701;50.150;8.756;2022-07-09T09:27:12;3.17;;;1.90;;
17171;SDS011;8701;50.150;8.756;2022-07-09T09:31:21;3.50;;;1.90;;
17171;SDS011;8701;50.150;8.756;2022-07-09T09:35:25;5.63;;;2.07;;
17171;SDS011;8701;50.150;8.756;2022-07-09T09:39:28;5.03;;;2.20;;
17171;SDS011;8701;50.150;8.756;2022-07-09T09:43:32;2.77;;;1.80;;
17171;SDS011;8701;50.150;8.756;2022-07-09T09:47:36;2.60;;;1.60;;
17171;SDS011;8701;50.150;8.756;2022-07-09T09:51:42;2.60;;;1.43;;
17171;SDS011;8701;50.150;8.756;2022-07-09T09:55:48;2.00;;;1.53;;
17171;SDS011;8701;50.150;8.756;2022-07-09T09:59:53;2.93;;;1.30;;
17171;SDS011;8701;50.150;8.756;2022-07-09T10:03:56;2.13;;;1.40;;
17171;SDS011;8701;50.150;8.756;2022-07-09T10:07:59;1.43;;;1.33;;
17171;SDS011;8701;50.150;8.756;2022-07-09T10:12:01;2.33;;;1.60;;
17171;SDS011;8701;50.150;8.756;2022-07-09T10:16:05;1.40;;;1.30;;
17171;SDS011;8701;50.150;8.756;2022-07-09T10:20:08;1.60;;;1.50;;
17171;SDS011;8701;50.150;8.756;2022-07-09T10:24:12;1.83;;;1.70;;
17171;SDS011;8701;50.150;8.756;2022-07-09T10:28:24;3.43;;;2.13;;
17171;SDS011;8701;50.150;8.756;2022-07-09T10:32:28;3.70;;;2.03;;
17171;SDS011;8701;50.150;8.756;2022-07-09T10:36:32;2.67;;;1.87;;
17171;SDS011;8701;50.150;8.756;2022-07-09T10:40:38;2.57;;;1.77;;
17171;SDS011;8701;50.150;8.756;2022-07-09T10:44:41;5.90;;;1.97;;
17171;SDS011;8701;50.150;8.756;2022-07-09T10:48:45;2.20;;;1.77;;
17171;SDS011;8701;50.150;8.756;2022-07-09T10:52:48;4.73;;;2.77;;
17171;SDS011;8701;50.150;8.756;2022-07-09T10:56:51;9.20;;;2.40;;
17171;SDS011;8701;50.150;8.756;2022-07-09T11:00:54;3.43;;;2.40;;
17171;SDS011;8701;50.150;8.756;2022-07-09T11:04:58;2.30;;;2.10;;
17171;SDS011;8701;50.150;8.756;2022-07-09T11:09:10;2.33;;;1.97;;
17171;SDS011;8701;50.150;8.756;2022-07-09T11:13:13;6.90;;;2.20;;
17171;SDS011;8701;50.150;8.756;2022-07-09T11:17:16;1.73;;;1.63;;
17171;SDS011;8701;50.150;8.756;2022-07-09T11:21:22;1.80;;;1.70;;
17171;SDS011;8701;50.150;8.756;2022-07-09T11:25:25;1.97;;;1.70;;
17171;SDS011;8701;50.150;8.756;2022-07-09T11:29:28;1.73;;;1.57;;
17171;SDS011;8701;50.150;8.756;2022-07-09T11:33:31;1.97;;;1.57;;
17171;SDS011;8701;50.150;8.756;2022-07-09T11:37:49;2.33;;;1.30;;
17171;SDS011;8701;50.150;8.756;2022-07-09T11:41:51;1.73;;;1.50;;
17171;SDS011;8701;50.150;8.756;2022-07-09T11:45:54;1.70;;;1.60;;
17171;SDS011;8701;50.150;8.756;2022-07-09T11:50:04;2.00;;;1.80;;
17171;SDS011;8701;50.150;8.756;2022-07-09T11:54:08;1.70;;;1.60;;
17171;SDS011;8701;50.150;8.756;2022-07-09T11:58:10;2.30;;;1.87;;
17171;SDS011;8701;50.150;8.756;2022-07-09T12:02:21;3.27;;;2.03;;
17171;SDS011;8701;50.150;8.756;2022-07-09T12:06:24;2.27;;;1.90;;
17171;SDS011;8701;50.150;8.756;2022-07-09T12:10:30;2.93;;;2.07;;
17171;SDS011;8701;50.150;8.756;2022-07-09T12:14:33;2.20;;;2.00;;
17171;SDS011;8701;50.150;8.756;2022-07-09T12:18:35;2.60;;;2.37;;
17171;SDS011;8701;50.150;8.756;2022-07-09T12:22:37;2.20;;;2.00;;
17171;SDS011;8701;50.150;8.756;2022-07-09T12:26:41;3.77;;;1.90;;
17171;SDS011;8701;50.150;8.756;2022-07-09T12:30:43;1.90;;;1.80;;
17171;SDS011;8701;50.150;8.756;2022-07-09T12:34:45;1.83;;;1.70;;
17171;SDS011;8701;50.150;8.756;2022-07-09T12:38:48;3.57;;;2.00;;
17171;SDS011;8701;50.150;8.756;2022-07-09T12:42:51;1.77;;;1.67;;
17171;SDS011;8701;50.150;8.756;2022-07-09T12:46:53;4.33;;;1.70;;
17171;SDS011;8701;50.150;8.756;2022-07-09T12:50:56;1.90;;;1.73;;
17171;SDS011;8701;50.150;8.756;2022-07-09T12:54:58;2.37;;;1.60;;
17171;SDS011;8701;50.150;8.756;2022-07-09T12:59:02;2.20;;;1.63;;
17171;SDS011;8701;50.150;8.756;2022-07-09T13:03:05;1.87;;;1.57;;
17171;SDS011;8701;50.150;8.756;2022-07-09T13:07:07;2.50;;;1.80;;
17171;SDS011;8701;50.150;8.756;2022-07-09T13:11:09;1.73;;;1.60;;
17171;SDS011;8701;50.150;8.756;2022-07-09T13:15:13;1.60;;;1.50;;
17171;SDS011;8701;50.150;8.756;2022-07-09T13:19:17;1.93;;;1.60;;
17171;SDS011;8701;50.150;8.756;2022-07-09T13:23:20;2.03;;;1.80;;
17171;SDS011;8701;50.150;8.756;2022-07-09T13:27:22;1.73;;;1.60;;
17171;SDS011;8701;50.150;8.756;2022-07-09T13:31:25;1.63;;;1.53;;
17171;SDS011;8701;50.150;8.756;2022-07-09T13:35:28;2.83;;;1.50;;
17171;SDS011;8701;50.150;8.756;2022-07-09T13:39:30;2.03;;;1.77;;
17171;SDS011;8701;50.150;8.756;2022-07-09T13:43:32;5.23;;;1.70;;
17171;SDS011;8701;50.150;8.756;2022-07-09T13:47:36;1.40;;;1.30;;
17171;SDS011;8701;50.150;8.756;2022-07-09T13:51:38;2.03;;;1.83;;
17171;SDS011;8701;50.150;8.756;2022-07-09T13:55:40;2.40;;;1.70;;
17171;SDS011;8701;50.150;8.756;2022-07-09T13:59:42;1.60;;;1.50;;
17171;SDS011;8701;50.150;8.756;2022-07-09T14:03:46;3.33;;;1.97;;
17171;SDS011;8701;50.150;8.756;2022-07-09T14:07:49;1.93;;;1.73;;
17171;SDS011;8701;50.150;8.756;2022-07-09T14:11:51;1.97;;;1.87;;
17171;SDS011;8701;50.150;8.756;2022-07-09T14:15:53;2.07;;;1.90;;
17171;SDS011;8701;50.150;8.756;2022-07-09T14:19:58;2.30;;;1.50;;
17171;SDS011;8701;50.150;8.756;2022-07-09T14:24:00;1.57;;;1.40;;
17171;SDS011;8701;50.150;8.756;2022-07-09T14:28:02;3.00;;;1.90;;
17171;SDS011;8701;50.150;8.756;2022-07-09T14:32:05;1.53;;;1.43;;
17171;SDS011;8701;50.150;8.756;2022-07-09T14:36:10;1.70;;;1.60;;
17171;SDS011;8701;50.150;8.756;2022-07-09T14:40:12;1.80;;;1.70;;
17171;SDS011;8701;50.150;8.756;2022-07-09T14:44:15;1.83;;;1.73;;
17171;SDS011;8701;50.150;8.756;2022-07-09T14:48:17;1.70;;;1.60;;
17171;SDS011;8701;50.150;8.756;2022-07-09T14:52:21;1.90;;;1.50;;
17171;SDS011;8701;50.150;8.756;2022-07-09T14:56:23;2.23;;;1.87;;
17171;SDS011;8701;50.150;8.756;2022-07-09T15:00:26;6.80;;;1.70;;
17171;SDS011;8701;50.150;8.756;2022-07-09T15:04:28;2.20;;;2.00;;
17171;SDS011;8701;50.150;8.756;2022-07-09T15:08:32;3.53;;;1.83;;
17171;SDS011;8701;50.150;8.756;2022-07-09T15:12:34;2.07;;;1.87;;
17171;SDS011;8701;50.150;8.756;2022-07-09T15:16:37;3.03;;;1.90;;
17171;SDS011;8701;50.150;8.756;2022-07-09T15:20:39;2.17;;;1.97;;
17171;SDS011;8701;50.150;8.756;2022-07-09T15:24:43;2.33;;;1.77;;
17171;SDS011;8701;50.150;8.756;2022-07-09T15:28:45;2.17;;;1.63;;
17171;SDS011;8701;50.150;8.756;2022-07-09T15:32:48;1.70;;;1.60;;
17171;SDS011;8701;50.150;8.756;2022-07-09T15:36:50;1.80;;;1.70;;
17171;SDS011;8701;50.150;8.756;2022-07-09T15:40:54;1.80;;;1.67;;
17171;SDS011;8701;50.150;8.756;2022-07-09T15:44:56;3.43;;;1.90;;
17171;SDS011;8701;50.150;8.756;2022-07-09T15:48:58;2.37;;;2.17;;
17171;SDS011;8701;50.150;8.756;2022-07-09T15:53:01;1.80;;;1.70;;
17171;SDS011;8701;50.150;8.756;2022-07-09T15:57:05;2.23;;;1.80;;
17171;SDS011;8701;50.150;8.756;2022-07-09T16:01:08;2.03;;;1.80;;
17171;SDS011;8701;50.150;8.756;2022-07-09T16:05:11;6.60;;;1.90;;
17171;SDS011;8701;50.150;8.756;2022-07-09T16:09:13;2.10;;;2.00;;
17171;SDS011;8701;50.150;8.756;2022-07-09T16:13:16;3.23;;;1.80;;
17171;SDS011;8701;50.150;8.756;2022-07-09T16:17:19;4.40;;;2.53;;
17171;SDS011;8701;50.150;8.756;2022-07-09T16:21:21;3.83;;;1.90;;
17171;SDS011;8701;50.150;8.756;2022-07-09T16:25:23;4.37;;;2.87;;
17171;SDS011;8701;50.150;8.756;2022-07-09T16:29:27;2.20;;;2.00;;
17171;SDS011;8701;50.150;8.756;2022-07-09T16:33:29;2.40;;;1.80;;
17171;SDS011;8701;50.150;8.756;2022-07-09T16:37:31;2.97;;;2.10;;
17171;SDS011;8701;50.150;8.756;2022-07-09T16:41:34;2.50;;;2.30;;
17171;SDS011;8701;50.150;8.756;2022-07-09T16:45:37;2.40;;;2.20;;
17171;SDS011;8701;50.150;8.756;2022-07-09T16:49:39;3.17;;;2.50;;
17171;SDS011;8701;50.150;8.756;2022-07-09T16:53:42;2.27;;;2.03;;
17171;SDS011;8701;50.150;8.756;2022-07-09T16:57:45;2.90;;;2.37;;
17171;SDS011;8701;50.150;8.756;2022-07-09T17:01:49;2.23;;;2.13;;
17171;SDS011;8701;50.150;8.756;2022-07-09T17:05:51;4.17;;;2.40;;
17171;SDS011;8701;50.150;8.756;2022-07-09T17:09:53;3.20;;;2.10;;
17171;SDS011;8701;50.150;8.756;2022-07-09T17:13:55;3.57;;;2.13;;
17171;SDS011;8701;50.150;8.756;2022-07-09T17:17:59;4.03;;;2.27;;
17171;SDS011;8701;50.150;8.756;2022-07-09T17:22:01;3.40;;;2.27;;
17171;SDS011;8701;50.150;8.756;2022-07-09T17:26:04;5.90;;;2.20;;
17171;SDS011;8701;50.150;8.756;2022-07-09T17:30:07;3.40;;;2.50;;
17171;SDS011;8701;50.150;8.756;2022-07-09T17:34:10;2.47;;;2.27;;
17171;SDS011;8701;50.150;8.756;2022-07-09T17:38:12;2.30;;;2.10;;
17171;SDS011;8701;50.150;8.756;2022-07-09T17:42:15;2.50;;;2.27;;
17171;SDS011;8701;50.150;8.756;2022-07-09T17:46:17;4.53;;;2.50;;
17171;SDS011;8701;50.150;8.756;2022-07-09T17:50:21;2.47;;;2.27;;
17171;SDS011;8701;50.150;8.756;2022-07-09T17:54:23;2.60;;;2.40;;
17171;SDS011;8701;50.150;8.756;2022-07-09T17:58:25;3.17;;;2.37;;
17171;SDS011;8701;50.150;8.756;2022-07-09T18:02:28;2.50;;;2.30;;
17171;SDS011;8701;50.150;8.756;2022-07-09T18:06:32;2.40;;;2.23;;
17171;SDS011;8701;50.150;8.756;2022-07-09T18:10:34;2.80;;;2.50;;
17171;SDS011;8701;50.150;8.756;2022-07-09T18:14:36;2.63;;;2.43;;
17171;SDS011;8701;50.150;8.756;2022-07-09T18:18:38;2.73;;;2.43;;
17171;SDS011;8701;50.150;8.756;2022-07-09T18:22:42;2.70;;;2.50;;
17171;SDS011;8701;50.150;8.756;2022-07-09T18:26:45;2.90;;;2.60;;
17171;SDS011;8701;50.150;8.756;2022-07-09T18:30:47;2.80;;;2.17;;
17171;SDS011;8701;50.150;8.756;2022-07-09T18:34:49;2.50;;;2.30;;
17171;SDS011;8701;50.150;8.756;2022-07-09T18:38:53;3.67;;;2.40;;
17171;SDS011;8701;50.150;8.756;2022-07-09T18:42:55;2.63;;;2.43;;
17171;SDS011;8701;50.150;8.756;2022-07-09T18:46:57;4.80;;;2.93;;
17171;SDS011;8701;50.150;8.756;2022-07-09T18:51:00;2.70;;;2.50;;
17171;SDS011;8701;50.150;8.756;2022-07-09T18:55:04;2.80;;;2.60;;
17171;SDS011;8701;50.150;8.756;2022-07-09T18:59:07;3.93;;;2.80;;
17171;SDS011;8701;50.150;8.756;2022-07-09T19:03:10;3.30;;;3.00;;
17171;SDS011;8701;50.150;8.756;2022-07-09T19:07:12;2.70;;;2.50;;
17171;SDS011;8701;50.150;8.756;2022-07-09T19:11:15;3.10;;;2.80;;
17171;SDS011;8701;50.150;8.756;2022-07-09T19:15:18;3.50;;;3.20;;
17171;SDS011;8701;50.150;8.756;2022-07-09T19:19:20;4.40;;;2.87;;
17171;SDS011;8701;50.150;8.756;2022-07-09T19:23:22;3.10;;;2.90;;
17171;SDS011;8701;50.150;8.756;2022-07-09T19:27:26;4.40;;;2.63;;
17171;SDS011;8701;50.150;8.756;2022-07-09T19:31:28;4.70;;;3.30;;
17171;SDS011;8701;50.150;8.756;2022-07-09T19:35:48;2.60;;;2.40;;
17171;SDS011;8701;50.150;8.756;2022-07-09T19:39:50;3.10;;;2.90;;
17171;SDS011;8701;50.150;8.756;2022-07-09T19:43:54;3.57;;;3.23;;
17171;SDS011;8701;50.150;8.756;2022-07-09T19:47:56;6.33;;;3.00;;
17171;SDS011;8701;50.150;8.756;2022-07-09T19:51:58;5.83;;;3.70;;
17171;SDS011;8701;50.150;8.756;2022-07-09T19:56:00;3.90;;;3.60;;
17171;SDS011;8701;50.150;8.756;2022-07-09T20:00:04;4.90;;;3.47;;
17171;SDS011;8701;50.150;8.756;2022-07-09T20:04:08;7.00;;;4.17;;
17171;SDS011;8701;50.150;8.756;2022-07-09T20:08:11;3.53;;;3.20;;
17171;SDS011;8701;50.150;8.756;2022-07-09T20:12:13;4.70;;;3.43;;
17171;SDS011;8701;50.150;8.756;2022-07-09T20:16:16;7.23;;;3.80;;
17171;SDS011;8701;50.150;8.756;2022-07-09T20:20:19;3.37;;;3.07;;
17171;SDS011;8701;50.150;8.756;2022-07-09T20:24:23;3.83;;;3.40;;
17171;SDS011;8701;50.150;8.756;2022-07-09T20:28:25;3.90;;;3.33;;
17171;SDS011;8701;50.150;8.756;2022-07-09T20:32:29;3.60;;;3.30;;
17171;SDS011;8701;50.150;8.756;2022-07-09T20:36:31;4.10;;;3.70;;
17171;SDS011;8701;50.150;8.756;2022-07-09T20:40:33;3.83;;;3.43;;
17171;SDS011;8701;50.150;8.756;2022-07-09T20:44:35;3.80;;;3.47;;
17171;SDS011;8701;50.150;8.756;2022-07-09T20:48:39;4.10;;;3.70;;
17171;SDS011;8701;50.150;8.756;2022-07-09T20:52:41;5.60;;;3.60;;
17171;SDS011;8701;50.150;8.756;2022-07-09T20:56:43;5.43;;;3.80;;
17171;SDS011;8701;50.150;8.756;2022-07-09T21:00:45;4.83;;;3.70;;
17171;SDS011;8701;50.150;8.756;2022-07-09T21:04:49;4.67;;;4.27;;
17171;SDS011;8701;50.150;8.756;2022-07-09T21:08:51;3.63;;;3.33;;
17171;SDS011;8701;50.150;8.756;2022-07-09T21:12:54;4.80;;;4.23;;
17171;SDS011;8701;50.150;8.756;2022-07-09T21:16:56;10.83;;;3.70;;
17171;SDS011;8701;50.150;8.756;2022-07-09T21:21:17;8.13;;;4.20;;
17171;SDS011;8701;50.150;8.756;2022-07-09T21:25:20;4.00;;;3.63;;
17171;SDS011;8701;50.150;8.756;2022-07-09T21:29:23;3.83;;;3.10;;
17171;SDS011;8701;50.150;8.756;2022-07-09T21:33:25;4.50;;;3.67;;
17171;SDS011;8701;50.150;8.756;2022-07-09T21:37:29;3.53;;;3.13;;
17171;SDS011;8701;50.150;8.756;2022-07-09T21:41:31;5.57;;;4.17;;
17171;SDS011;8701;50.150;8.756;2022-07-09T21:45:33;3.30;;;3.10;;
17171;SDS011;8701;50.150;8.756;2022-07-09T21:49:35;2.67;;;2.47;;
17171;SDS011;8701;50.150;8.756;2022-07-09T21:53:39;2.63;;;2.40;;
17171;SDS011;8701;50.150;8.756;2022-07-09T21:57:41;3.03;;;2.33;;
17171;SDS011;8701;50.150;8.756;2022-07-09T22:01:43;2.53;;;2.33;;
17171;SDS011;8701;50.150;8.756;2022-07-09T22:05:45;3.43;;;2.33;;
17171;SDS011;8701;50.150;8.756;2022-07-09T22:09:49;5.20;;;3.00;;
17171;SDS011;8701;50.150;8.756;2022-07-09T22:13:51;4.37;;;2.63;;
17171;SDS011;8701;50.150;8.756;2022-07-09T22:17:54;5.17;;;2.80;;
17171;SDS011;8701;50.150;8.756;2022-07-09T22:21:56;2.60;;;2.40;;
17171;SDS011;8701;50.150;8.756;2022-07-09T22:26:00;3.20;;;2.37;;
17171;SDS011;8701;50.150;8.756;2022-07-09T22:30:02;5.47;;;2.50;;
17171;SDS011;8701;50.150;8.756;2022-07-09T22:34:05;2.60;;;2.40;;
17171;SDS011;8701;50.150;8.756;2022-07-09T22:38:08;2.50;;;2.30;;
17171;SDS011;8701;50.150;8.756;2022-07-09T22:42:12;3.53;;;2.30;;
17171;SDS011;8701;50.150;8.756;2022-07-09T22:46:14;3.87;;;2.20;;
17171;SDS011;8701;50.150;8.756;2022-07-09T22:50:17;2.63;;;2.03;;
17171;SDS011;8701;50.150;8.756;2022-07-09T22:54:20;3.00;;;2.10;;
17171;SDS011;8701;50.150;8.756;2022-07-09T22:58:23;5.20;;;2.40;;
17171;SDS011;8701;50.150;8.756;2022-07-09T23:02:26;2.90;;;2.23;;
17171;SDS011;8701;50.150;8.756;2022-07-09T23:06:28;4.83;;;2.63;;
17171;SDS011;8701;50.150;8.756;2022-07-09T23:10:30;2.60;;;2.40;;
17171;SDS011;8701;50.150;8.756;2022-07-09T23:14:34;3.77;;;2.50;;
17171;SDS011;8701;50.150;8.756;2022-07-09T23:18:36;2.43;;;2.20;;
17171;SDS011;8701;50.150;8.756;2022-07-09T23:22:38;5.20;;;2.77;;
17171;SDS011;8701;50.150;8.756;2022-07-09T23:26:40;4.37;;;2.83;;
17171;SDS011;8701;50.150;8.756;2022-07-09T23:30:44;5.03;;;2.43;;
17171;SDS011;8701;50.150;8.756;2022-07-09T23:34:46;2.63;;;2.43;;
17171;SDS011;8701;50.150;8.756;2022-07-09T23:38:48;3.80;;;3.00;;
17171;SDS011;8701;50.150;8.756;2022-07-09T23:42:51;3.80;;;2.50;;
17171;SDS011;8701;50.150;8.756;2022-07-09T23:46:54;3.30;;;2.90;;
17171;SDS011;8701;50.150;8.756;2022-07-09T23:50:56;2.97;;;2.50;;
17171;SDS011;8701;50.150;8.756;2022-07-09T23:54:59;4.27;;;3.00;;
17171;SDS011;8701;50.150;8.756;2022-07-09T23:59:01;4.90;;;3.00;;
